Time;durP1;ratioP1;P1;durP2;ratioP2;P2;SDS_P1;SDS_P2;PMS_P1;PMS_P2;Temp;Humidity;BMP_temperature;BMP_pressure;BME280_temperature;BME280_humidity;BME280_pressure;Samples;Min_cycle;Max_cycle;Signal;HPM_P1;HPM_P2
2022/02/01 00:01:01;;;;;;;13.88;4.15;;;7.70;99.90;;;;;;5096612;28;20069;-78
2022/02/01 00:03:30;;;;;;;13.80;4.70;;;7.70;99.90;;;;;;5094699;28;20052;-79
2022/02/01 00:06:12;;;;;;;12.63;5.45;;;7.70;99.90;;;;;;5096145;28;20008;-77
2022/02/01 00:08:47;;;;;;;16.65;4.95;;;7.70;99.90;;;;;;5096413;28;20020;-80
2022/02/01 00:35:20;;;;;;;13.52;4.95;;;7.80;99.90;;;;;;5095902;28;20073;-78
2022/02/01 00:37:58;;;;;;;10.65;3.67;;;7.80;99.90;;;;;;5093998;28;20020;-79
2022/02/01 00:40:25;;;;;;;12.95;4.30;;;7.70;99.90;;;;;;5095584;28;20103;-81
2022/02/01 00:42:50;;;;;;;12.82;4.43;;;7.70;99.90;;;;;;5095766;28;20038;-79
2022/02/01 00:45:16;;;;;;;11.05;4.50;;;7.70;99.90;;;;;;5095413;28;20095;-79
2022/02/01 00:47:43;;;;;;;12.63;4.70;;;7.80;99.90;;;;;;5095350;28;20032;-80
2022/02/01 00:50:12;;;;;;;13.13;5.55;;;7.80;99.90;;;;;;5095296;28;20103;-78
2022/02/01 00:52:38;;;;;;;15.48;5.40;;;7.90;99.90;;;;;;5095248;28;20110;-78
2022/02/01 00:55:05;;;;;;;15.30;5.50;;;7.90;99.90;;;;;;5095313;28;20103;-78
2022/02/01 00:57:30;;;;;;;14.65;4.50;;;7.90;99.90;;;;;;5094995;28;20036;-80
2022/02/01 00:59:56;;;;;;;10.80;4.28;;;7.90;99.90;;;;;;5095156;28;20027;-80
2022/02/01 01:02:22;;;;;;;15.77;4.72;;;7.90;99.90;;;;;;5095092;28;20067;-78
2022/02/01 01:04:47;;;;;;;10.15;3.80;;;8.00;99.90;;;;;;5095299;28;20118;-79
2022/02/01 01:07:13;;;;;;;11.23;4.75;;;8.00;99.90;;;;;;5093841;28;20031;-78
2022/02/01 01:09:39;;;;;;;15.30;5.93;;;8.00;99.90;;;;;;5094939;28;20091;-78
2022/02/01 01:12:05;;;;;;;14.98;5.95;;;8.00;99.90;;;;;;5094898;28;20020;-79
2022/02/01 01:44:47;;;;;;;14.90;4.90;;;7.90;99.90;;;;;;5094612;28;20024;-76
2022/02/01 01:53:13;;;;;;;12.90;4.32;;;7.90;99.90;;;;;;5094431;28;20035;-78
2022/02/01 01:55:43;;;;;;;12.25;3.90;;;7.90;99.90;;;;;;5094078;28;20016;-81
2022/02/01 01:58:09;;;;;;;16.75;4.00;;;7.90;99.90;;;;;;5092694;28;20020;-79
2022/02/01 02:01:11;;;;;;;11.75;4.30;;;7.90;99.90;;;;;;5093943;28;20020;-78
2022/02/01 02:03:24;;;;;;;13.57;4.25;;;7.90;99.90;;;;;;5093260;28;20490;-78
2022/02/01 02:05:50;;;;;;;16.13;4.45;;;7.90;99.90;;;;;;5094141;28;20405;-78
2022/02/01 02:08:16;;;;;;;17.92;4.70;;;7.90;99.90;;;;;;5094140;28;20099;-79
2022/02/01 02:10:56;;;;;;;19.15;4.38;;;7.90;99.90;;;;;;5093802;28;20103;-78
2022/02/01 02:15:58;;;;;;;14.38;4.07;;;7.90;99.90;;;;;;5094032;28;20520;-80
2022/02/01 02:18:25;;;;;;;11.95;3.65;;;7.90;99.90;;;;;;5091868;28;20031;-79
2022/02/01 02:20:53;;;;;;;13.88;4.15;;;7.90;99.90;;;;;;5093946;28;20024;-79
2022/02/01 02:23:19;;;;;;;15.20;3.83;;;7.80;99.90;;;;;;5093650;28;20023;-79
2022/02/01 02:25:46;;;;;;;15.48;4.70;;;7.80;99.90;;;;;;5093873;28;20454;-79
2022/02/01 02:28:14;;;;;;;9.88;3.45;;;7.80;99.90;;;;;;5093527;28;20095;-78
2022/02/01 02:30:44;;;;;;;15.10;4.68;;;7.80;99.90;;;;;;5093568;28;20032;-77
2022/02/01 02:33:12;;;;;;;14.23;4.38;;;7.80;99.90;;;;;;5093542;28;20024;-79
2022/02/01 02:36:06;;;;;;;12.73;4.53;;;7.90;99.90;;;;;;5093464;28;20028;-80
2022/02/01 02:38:51;;;;;;;13.27;4.55;;;7.90;99.90;;;;;;5094015;28;20024;-78
2022/02/01 02:41:49;;;;;;;12.50;4.15;;;7.90;99.90;;;;;;5093956;28;20020;-77
2022/02/01 02:46:53;;;;;;;18.13;4.30;;;7.90;99.90;;;;;;5093615;28;20039;-78
2022/02/01 02:49:22;;;;;;;15.48;4.28;;;7.90;99.90;;;;;;5093872;28;20032;-79
2022/02/01 02:51:49;;;;;;;17.63;4.43;;;7.90;99.90;;;;;;5093295;28;20051;-79
2022/02/01 02:54:20;;;;;;;12.80;3.70;;;7.90;99.90;;;;;;5093204;28;20031;-79
2022/02/01 02:56:52;;;;;;;13.93;3.88;;;8.00;99.90;;;;;;5093158;28;20535;-78
2022/02/01 02:59:18;;;;;;;14.05;4.22;;;8.00;99.90;;;;;;5093265;28;20077;-78
2022/02/01 03:01:48;;;;;;;18.17;3.95;;;8.00;99.90;;;;;;5093177;28;20474;-78
2022/02/01 03:04:15;;;;;;;14.48;3.75;;;8.00;99.90;;;;;;5092768;28;20040;-80
2022/02/01 03:06:42;;;;;;;15.13;4.88;;;8.00;99.90;;;;;;5093162;28;20505;-78
2022/02/01 03:09:08;;;;;;;14.85;3.88;;;8.00;99.90;;;;;;5093416;28;20030;-78
2022/02/01 03:11:34;;;;;;;11.95;4.05;;;8.10;99.90;;;;;;5093088;28;20448;-80
2022/02/01 03:14:03;;;;;;;19.05;4.97;;;8.10;99.90;;;;;;5093116;28;20099;-79
2022/02/01 03:16:51;;;;;;;12.32;3.60;;;8.10;99.90;;;;;;5093240;28;20020;-77
2022/02/01 03:22:01;;;;;;;11.68;4.28;;;8.20;99.90;;;;;;5093004;28;20032;-79
2022/02/01 03:24:27;;;;;;;13.20;3.42;;;8.10;99.90;;;;;;5093251;28;20032;-81
2022/02/01 03:26:52;;;;;;;12.20;3.88;;;8.10;99.90;;;;;;5092953;28;20044;-79
2022/02/01 03:29:18;;;;;;;19.17;4.55;;;8.10;99.90;;;;;;5094088;28;20067;-78
2022/02/01 03:31:44;;;;;;;13.50;3.72;;;8.10;99.90;;;;;;5096820;28;20469;-81
2022/02/01 03:34:09;;;;;;;13.93;4.22;;;8.10;99.90;;;;;;5096790;28;20088;-80
2022/02/01 03:36:35;;;;;;;11.32;4.82;;;8.10;99.90;;;;;;5096928;28;20036;-80
2022/02/01 03:39:01;;;;;;;15.35;4.82;;;8.20;99.90;;;;;;5095375;28;20047;-81
2022/02/01 03:41:27;;;;;;;17.17;4.55;;;8.10;99.90;;;;;;5095339;28;20382;-79
2022/02/01 03:43:53;;;;;;;10.90;4.38;;;8.10;99.90;;;;;;5096598;28;20454;-79
2022/02/01 03:46:20;;;;;;;14.35;5.32;;;8.10;99.90;;;;;;5096845;28;20548;-79
2022/02/01 03:48:46;;;;;;;14.73;5.35;;;8.00;99.90;;;;;;5096778;28;20489;-79
2022/02/01 03:51:12;;;;;;;12.52;5.45;;;8.10;99.90;;;;;;5095177;28;20027;-79
2022/02/01 03:53:38;;;;;;;16.33;5.53;;;8.10;99.90;;;;;;5096385;28;20029;-80
2022/02/01 03:56:04;;;;;;;14.77;5.05;;;8.20;99.90;;;;;;5096285;28;20016;-79
2022/02/01 03:58:30;;;;;;;12.75;4.97;;;8.20;99.90;;;;;;5096316;28;20371;-80
2022/02/01 04:00:56;;;;;;;13.73;5.43;;;8.20;99.90;;;;;;5096296;28;20020;-77
2022/02/01 04:03:22;;;;;;;16.33;5.32;;;8.30;99.90;;;;;;5096164;28;20493;-78
2022/02/01 04:05:47;;;;;;;16.95;5.72;;;8.30;99.90;;;;;;5096178;28;20404;-82
2022/02/01 04:08:16;;;;;;;11.98;5.15;;;8.30;99.90;;;;;;5096150;28;20027;-77
2022/02/01 04:10:42;;;;;;;16.17;5.07;;;8.30;99.90;;;;;;5096096;28;20088;-78
2022/02/01 04:13:08;;;;;;;19.08;5.45;;;8.30;99.90;;;;;;5096076;28;20047;-79
2022/02/01 04:15:34;;;;;;;17.33;4.93;;;8.30;99.90;;;;;;5095997;28;20497;-77
2022/02/01 04:17:59;;;;;;;17.33;4.40;;;8.30;99.90;;;;;;5095891;28;20024;-77
2022/02/01 04:20:26;;;;;;;14.10;4.22;;;8.30;99.90;;;;;;5095956;28;20158;-80
2022/02/01 04:22:52;;;;;;;15.40;3.88;;;8.30;99.90;;;;;;5096161;28;20024;-78
2022/02/01 04:25:18;;;;;;;18.83;4.20;;;8.30;99.90;;;;;;5096322;28;20026;-81
2022/02/01 04:27:44;;;;;;;17.55;3.95;;;8.30;99.90;;;;;;5095772;28;20024;-79
2022/02/01 04:30:16;;;;;;;12.27;3.47;;;8.40;99.90;;;;;;5096032;28;20028;-80
2022/02/01 04:32:47;;;;;;;11.75;3.28;;;8.30;99.90;;;;;;5096293;28;20055;-79
2022/02/01 04:35:21;;;;;;;14.27;4.22;;;8.40;99.90;;;;;;5096199;28;20050;-80
2022/02/01 04:37:47;;;;;;;14.60;3.15;;;8.40;99.90;;;;;;5096095;28;20028;-77
2022/02/01 04:40:15;;;;;;;14.85;4.40;;;8.40;99.90;;;;;;5095633;28;20012;-79
2022/02/01 04:42:42;;;;;;;15.77;3.50;;;8.40;99.90;;;;;;5096028;28;20024;-78
2022/02/01 04:45:13;;;;;;;15.05;3.25;;;8.40;99.90;;;;;;5095489;28;20485;-81
2022/02/01 04:47:40;;;;;;;19.10;4.10;;;8.40;99.90;;;;;;5095676;28;20073;-78
2022/02/01 04:50:13;;;;;;;9.05;3.53;;;8.40;99.90;;;;;;5095375;28;20036;-82
2022/02/01 04:52:41;;;;;;;11.00;3.33;;;8.40;99.90;;;;;;5095935;28;20036;-78
2022/02/01 04:55:07;;;;;;;16.70;3.60;;;8.40;99.90;;;;;;5095185;28;20020;-77
2022/02/01 04:57:34;;;;;;;24.98;3.80;;;8.40;99.90;;;;;;5095352;28;20052;-79
2022/02/01 04:59:59;;;;;;;17.10;4.07;;;8.40;99.90;;;;;;5095186;28;20386;-77
2022/02/01 05:02:25;;;;;;;14.07;3.78;;;8.40;99.90;;;;;;5094844;28;20040;-78
2022/02/01 05:04:51;;;;;;;19.58;3.80;;;8.40;99.90;;;;;;5094986;28;20020;-78
2022/02/01 05:07:20;;;;;;;15.27;4.35;;;8.40;99.90;;;;;;5095273;28;20032;-80
2022/02/01 05:09:46;;;;;;;9.35;3.20;;;8.40;99.90;;;;;;5095030;28;20048;-79
2022/02/01 05:12:12;;;;;;;17.33;3.72;;;8.40;99.90;;;;;;5093633;28;20111;-78
2022/02/01 05:14:38;;;;;;;13.07;3.78;;;8.40;99.90;;;;;;5095137;28;20103;-80
2022/02/01 05:17:04;;;;;;;13.18;3.05;;;8.50;99.90;;;;;;5094689;28;20497;-78
2022/02/01 05:19:47;;;;;;;14.68;3.30;;;8.50;99.90;;;;;;5093513;28;20454;-80
2022/02/01 05:22:16;;;;;;;16.48;3.13;;;8.50;99.90;;;;;;5093210;28;20024;-79
2022/02/01 05:24:43;;;;;;;12.00;3.63;;;8.50;99.90;;;;;;5094643;28;20020;-77
2022/02/01 05:27:12;;;;;;;14.40;4.32;;;8.50;99.90;;;;;;5094599;28;20020;-80
2022/02/01 05:29:38;;;;;;;17.38;3.75;;;8.50;99.90;;;;;;5094595;28;20020;-78
2022/02/01 05:32:19;;;;;;;18.48;2.92;;;8.50;99.90;;;;;;5094509;28;20028;-79
2022/02/01 05:34:45;;;;;;;13.27;4.72;;;8.50;99.90;;;;;;5092926;28;20024;-79
2022/02/01 05:37:11;;;;;;;17.23;3.30;;;8.50;99.90;;;;;;5094903;28;20085;-78
2022/02/01 05:39:38;;;;;;;17.05;3.63;;;8.60;99.90;;;;;;5094658;28;20016;-79
2022/02/01 05:42:04;;;;;;;15.27;4.28;;;8.50;99.90;;;;;;5094627;28;20483;-77
2022/02/01 05:44:30;;;;;;;20.17;5.60;;;8.60;99.90;;;;;;5094325;28;20020;-79
2022/02/01 05:46:56;;;;;;;16.15;5.13;;;8.60;99.90;;;;;;5094291;28;20390;-80
2022/02/01 05:49:22;;;;;;;20.65;7.10;;;8.60;99.90;;;;;;5094173;28;20029;-78
2022/02/01 05:51:50;;;;;;;12.45;3.58;;;8.60;99.90;;;;;;5093622;28;20020;-78
2022/02/01 05:54:16;;;;;;;16.02;4.93;;;8.60;99.90;;;;;;5094051;28;20077;-79
2022/02/01 05:56:42;;;;;;;12.38;3.58;;;8.70;99.90;;;;;;5093990;28;20024;-78
2022/02/01 05:59:07;;;;;;;18.27;3.53;;;8.60;99.90;;;;;;5094259;28;20091;-79
2022/02/01 06:01:33;;;;;;;16.52;3.50;;;8.60;99.90;;;;;;5094283;28;20112;-78
2022/02/01 06:03:59;;;;;;;13.65;3.55;;;8.60;99.90;;;;;;5093548;28;20436;-79
2022/02/01 06:06:24;;;;;;;12.55;3.20;;;8.60;99.90;;;;;;5093942;28;20111;-79
2022/02/01 06:08:50;;;;;;;12.23;3.20;;;8.60;99.90;;;;;;5093889;28;20393;-78
2022/02/01 06:11:15;;;;;;;18.10;3.53;;;8.60;99.90;;;;;;5093838;28;20370;-80
2022/02/01 06:13:41;;;;;;;19.05;3.40;;;8.60;99.90;;;;;;5094013;28;20530;-80
2022/02/01 06:16:07;;;;;;;16.27;3.28;;;8.60;99.90;;;;;;5093965;28;20028;-79
2022/02/01 06:18:34;;;;;;;15.13;4.22;;;8.60;99.90;;;;;;5093738;28;20037;-79
2022/02/01 06:21:00;;;;;;;13.25;3.05;;;8.60;99.90;;;;;;5093733;28;20474;-78
2022/02/01 06:23:26;;;;;;;14.05;3.80;;;8.60;99.90;;;;;;5093687;28;20417;-81
2022/02/01 06:25:53;;;;;;;15.10;3.42;;;8.70;99.90;;;;;;5093643;28;20424;-81
2022/02/01 06:28:21;;;;;;;10.73;2.88;;;8.70;99.90;;;;;;5093873;28;20026;-82
2022/02/01 06:30:46;;;;;;;14.10;3.58;;;8.60;99.90;;;;;;5093518;28;20085;-79
2022/02/01 06:33:13;;;;;;;16.00;4.53;;;8.70;99.90;;;;;;5093490;28;20065;-78
2022/02/01 06:35:39;;;;;;;22.13;4.55;;;8.70;99.90;;;;;;5093518;28;20111;-79
2022/02/01 06:38:04;;;;;;;15.55;3.40;;;8.70;99.90;;;;;;5093892;28;20028;-79
2022/02/01 06:40:30;;;;;;;14.48;3.55;;;8.60;99.90;;;;;;5093463;28;20039;-78
2022/02/01 06:42:56;;;;;;;14.38;3.38;;;8.70;99.90;;;;;;5093390;28;20501;-79
2022/02/01 06:45:23;;;;;;;19.92;4.43;;;8.80;99.90;;;;;;5093281;28;20013;-82
2022/02/01 06:47:49;;;;;;;13.75;3.45;;;8.70;99.90;;;;;;5093553;28;20032;-80
2022/02/01 06:50:19;;;;;;;17.40;2.95;;;8.70;99.90;;;;;;5093572;28;20028;-79
2022/02/01 06:52:46;;;;;;;14.10;3.03;;;8.70;99.90;;;;;;5093630;28;20389;-77
2022/02/01 06:55:13;;;;;;;13.38;3.30;;;8.70;99.90;;;;;;5093170;28;20074;-79
2022/02/01 06:57:40;;;;;;;16.30;4.32;;;8.80;99.90;;;;;;5093410;28;20020;-81
2022/02/01 07:00:08;;;;;;;17.95;3.78;;;8.80;99.90;;;;;;5093207;28;20497;-79
2022/02/01 07:02:34;;;;;;;12.70;3.17;;;8.70;99.90;;;;;;5093594;28;20079;-81
2022/02/01 07:05:00;;;;;;;15.13;3.53;;;8.70;99.90;;;;;;5095308;28;20554;-78
2022/02/01 07:07:26;;;;;;;18.38;4.32;;;8.70;99.90;;;;;;5097287;28;20025;-81
2022/02/01 07:09:52;;;;;;;12.25;2.95;;;8.70;99.90;;;;;;5097280;28;20428;-79
2022/02/01 07:12:17;;;;;;;21.95;4.10;;;8.80;99.90;;;;;;5097218;28;20024;-80
2022/02/01 07:14:43;;;;;;;15.90;4.10;;;8.80;99.90;;;;;;5097180;28;20073;-78
2022/02/01 07:17:09;;;;;;;20.30;3.40;;;8.80;99.90;;;;;;5097070;28;20059;-79
2022/02/01 07:19:34;;;;;;;18.33;3.53;;;8.80;99.90;;;;;;5097060;28;20042;-79
2022/02/01 07:22:00;;;;;;;11.18;3.33;;;8.80;99.90;;;;;;5097238;28;20382;-78
2022/02/01 07:24:29;;;;;;;18.27;3.42;;;8.80;99.90;;;;;;5097227;28;20032;-80
2022/02/01 07:26:58;;;;;;;16.73;3.78;;;8.80;99.90;;;;;;5095679;28;20020;-79
2022/02/01 07:29:24;;;;;;;25.00;4.55;;;8.80;99.90;;;;;;5097464;28;20031;-80
2022/02/01 07:31:50;;;;;;;19.05;4.30;;;8.80;99.90;;;;;;5096867;28;20020;-80
2022/02/01 07:34:16;;;;;;;18.85;4.13;;;8.80;99.90;;;;;;5095462;28;20413;-79
2022/02/01 07:36:43;;;;;;;15.93;4.32;;;8.80;99.90;;;;;;5096668;28;20016;-80
2022/02/01 07:39:09;;;;;;;16.17;3.45;;;8.80;99.90;;;;;;5097016;28;20478;-80
2022/02/01 07:41:36;;;;;;;15.18;3.47;;;8.80;99.90;;;;;;5096701;28;20016;-80
2022/02/01 07:44:03;;;;;;;12.98;3.35;;;8.80;99.90;;;;;;5096668;28;20016;-78
2022/02/01 07:46:30;;;;;;;16.77;4.18;;;8.80;99.90;;;;;;5096519;28;20024;-79
2022/02/01 07:48:56;;;;;;;15.48;3.72;;;8.80;99.90;;;;;;5096556;28;20048;-77
2022/02/01 07:51:21;;;;;;;19.20;8.65;;;8.80;99.90;;;;;;5096441;28;20515;-78
2022/02/01 07:53:47;;;;;;;18.10;5.07;;;8.80;99.90;;;;;;5096612;28;20036;-78
2022/02/01 07:56:13;;;;;;;16.30;5.65;;;8.80;99.90;;;;;;5096319;28;20024;-77
2022/02/01 07:58:39;;;;;;;20.60;7.32;;;8.90;99.90;;;;;;5099743;28;20024;-78
2022/02/01 08:01:06;;;;;;;17.05;6.00;;;8.90;99.90;;;;;;5095597;28;20028;-78
2022/02/01 08:03:31;;;;;;;12.20;5.70;;;9.00;99.90;;;;;;5096063;28;20044;-78
2022/02/01 08:05:57;;;;;;;15.07;5.28;;;8.90;99.90;;;;;;5112886;28;20095;-78
2022/02/01 08:08:23;;;;;;;20.13;4.47;;;9.00;99.90;;;;;;5116599;28;20074;-78
2022/02/01 08:10:52;;;;;;;16.60;4.78;;;9.00;99.90;;;;;;5097595;28;20028;-80
2022/02/01 08:20:52;;;;;;;15.02;4.82;;;9.10;99.90;;;;;;5106678;28;20122;-79
2022/02/01 08:23:18;;;;;;;18.33;5.35;;;9.10;99.90;;;;;;5095551;28;20028;-81
2022/02/01 08:25:43;;;;;;;13.00;4.28;;;9.10;99.90;;;;;;5095819;28;20023;-81
2022/02/01 08:28:11;;;;;;;18.27;4.85;;;9.10;99.90;;;;;;5093539;28;20028;-79
2022/02/01 08:30:37;;;;;;;17.73;4.38;;;9.20;99.90;;;;;;5095530;28;20028;-81
2022/02/01 08:33:03;;;;;;;23.45;5.82;;;9.20;99.90;;;;;;5097934;28;20067;-80
2022/02/01 08:35:29;;;;;;;20.40;5.63;;;9.20;99.90;;;;;;5116602;28;20012;-81
2022/02/01 08:37:55;;;;;;;16.77;4.38;;;9.20;99.90;;;;;;5116001;28;20035;-80
2022/02/01 08:40:20;;;;;;;10.27;4.20;;;9.30;99.90;;;;;;5116332;28;20019;-80
2022/02/01 08:42:47;;;;;;;18.02;8.63;;;9.30;99.90;;;;;;5104784;28;20161;-82
2022/02/01 08:45:20;;;;;;;17.08;5.88;;;9.30;99.90;;;;;;5094151;28;20020;-81
2022/02/01 08:47:46;;;;;;;24.63;4.72;;;9.30;99.90;;;;;;5093626;28;20024;-80
2022/02/01 08:50:12;;;;;;;13.27;4.25;;;9.40;99.90;;;;;;5095319;28;20035;-78
2022/02/01 08:52:45;;;;;;;17.48;3.90;;;9.40;99.90;;;;;;5098443;28;20028;-78
2022/02/01 08:55:20;;;;;;;14.68;4.72;;;9.50;99.90;;;;;;5096549;28;20030;-78
2022/02/01 08:57:47;;;;;;;12.35;4.68;;;9.50;99.90;;;;;;5095602;28;20077;-77
2022/02/01 09:00:16;;;;;;;12.10;4.53;;;9.60;99.90;;;;;;5110616;28;20020;-76
2022/02/01 09:02:42;;;;;;;15.38;3.78;;;9.70;99.90;;;;;;5101072;28;20417;-77
2022/02/01 09:05:09;;;;;;;16.48;3.80;;;9.70;99.90;;;;;;5095053;28;20091;-77
2022/02/01 09:07:34;;;;;;;16.50;3.47;;;9.70;99.90;;;;;;5095005;28;20042;-79
2022/02/01 09:10:00;;;;;;;18.15;3.45;;;9.80;99.90;;;;;;5094777;28;20099;-81
2022/02/01 09:12:26;;;;;;;18.17;3.85;;;9.90;99.90;;;;;;5094908;28;20107;-78
2022/02/01 09:14:52;;;;;;;17.35;4.40;;;9.90;99.90;;;;;;5094815;28;20028;-78
2022/02/01 09:17:19;;;;;;;15.20;3.65;;;9.90;99.90;;;;;;5113009;28;20495;-78
2022/02/01 09:19:45;;;;;;;12.43;4.30;;;9.90;99.90;;;;;;5107134;28;20028;-78
2022/02/01 09:22:12;;;;;;;13.57;3.58;;;10.00;99.90;;;;;;5094975;28;20031;-77
2022/02/01 09:24:38;;;;;;;13.60;4.20;;;10.00;99.90;;;;;;5095280;28;20020;-79
2022/02/01 09:27:04;;;;;;;12.07;4.03;;;10.00;99.90;;;;;;5093951;28;20119;-77
2022/02/01 09:29:30;;;;;;;13.27;3.65;;;10.00;99.90;;;;;;5103677;28;20034;-74
2022/02/01 09:31:56;;;;;;;15.90;3.53;;;10.10;99.90;;;;;;5115180;28;20035;-78
2022/02/01 09:34:22;;;;;;;14.52;4.65;;;10.10;99.90;;;;;;5114446;28;20103;-80
2022/02/01 09:36:53;;;;;;;15.80;4.38;;;10.10;99.90;;;;;;5112788;28;20493;-82
2022/02/01 09:39:21;;;;;;;10.93;4.30;;;10.10;99.90;;;;;;5114818;28;20016;-82
2022/02/01 09:41:47;;;;;;;14.90;5.45;;;10.20;99.90;;;;;;5110144;28;20028;-78
2022/02/01 09:44:13;;;;;;;19.60;6.03;;;10.20;99.90;;;;;;5106725;28;20024;-79
2022/02/01 09:46:42;;;;;;;17.38;5.57;;;10.10;99.90;;;;;;5094027;28;20032;-81
2022/02/01 09:49:15;;;;;;;15.20;5.20;;;10.10;99.90;;;;;;5095264;28;20028;-81
2022/02/01 09:51:41;;;;;;;17.08;5.40;;;10.10;99.90;;;;;;5092584;28;20043;-81
2022/02/01 09:54:07;;;;;;;15.30;5.43;;;10.10;99.90;;;;;;5094188;28;20024;-83
2022/02/01 09:56:33;;;;;;;14.45;5.22;;;10.10;99.90;;;;;;5093938;28;20073;-81
2022/02/01 09:58:59;;;;;;;15.70;4.72;;;10.20;99.90;;;;;;5093965;28;20048;-82
2022/02/01 10:01:28;;;;;;;13.52;4.45;;;10.20;99.90;;;;;;5111881;28;20111;-79
2022/02/01 10:04:05;;;;;;;16.45;5.90;;;10.20;99.90;;;;;;5112615;28;20532;-83
2022/02/01 10:06:32;;;;;;;12.65;3.65;;;10.30;99.90;;;;;;5100206;28;20485;-80
2022/02/01 10:09:13;;;;;;;9.73;3.67;;;10.40;99.90;;;;;;5094503;28;20013;-81
2022/02/01 10:11:45;;;;;;;16.60;4.00;;;10.40;99.90;;;;;;5093620;28;20438;-83
2022/02/01 10:14:20;;;;;;;11.13;3.60;;;10.40;99.90;;;;;;5093828;28;20024;-79
2022/02/01 10:16:59;;;;;;;19.38;4.13;;;10.40;99.90;;;;;;5093696;28;20069;-80
2022/02/01 10:19:24;;;;;;;14.15;3.60;;;10.50;99.90;;;;;;5092030;28;20043;-78
2022/02/01 10:22:01;;;;;;;13.38;3.13;;;10.50;99.90;;;;;;5093547;28;20032;-79
2022/02/01 10:24:36;;;;;;;9.50;3.35;;;10.50;99.90;;;;;;5094227;28;20020;-79
2022/02/01 10:27:16;;;;;;;11.30;3.58;;;10.50;99.90;;;;;;5108916;28;20049;-77
2022/02/01 10:30:11;;;;;;;14.93;3.13;;;10.50;99.90;;;;;;5106094;28;20392;-77
2022/02/01 10:35:55;;;;;;;16.08;4.55;;;10.50;99.90;;;;;;5113829;28;20030;-77
2022/02/01 10:38:20;;;;;;;13.02;3.30;;;10.50;99.90;;;;;;5113559;28;20027;-80
2022/02/01 10:40:51;;;;;;;18.67;3.90;;;10.50;99.90;;;;;;5092884;28;20023;-81
2022/02/01 10:43:28;;;;;;;17.75;3.50;;;10.50;99.90;;;;;;5093395;28;20111;-84
2022/02/01 10:46:04;;;;;;;15.82;3.05;;;10.50;99.90;;;;;;5092272;28;20027;-83
2022/02/01 10:48:32;;;;;;;15.95;3.22;;;10.50;99.90;;;;;;5109874;28;20031;-84
2022/02/01 10:51:12;;;;;;;15.27;3.08;;;10.60;99.90;;;;;;5096094;28;20396;-84
2022/02/01 10:53:38;;;;;;;11.85;3.10;;;10.60;99.90;;;;;;5093810;28;20051;-82
2022/02/01 10:56:08;;;;;;;20.85;4.10;;;10.60;99.90;;;;;;5091935;28;20034;-82
2022/02/01 10:58:34;;;;;;;12.98;3.22;;;10.60;99.90;;;;;;5092833;28;20081;-81
2022/02/01 11:01:01;;;;;;;12.00;3.47;;;10.60;99.90;;;;;;5096714;28;20012;-79
2022/02/01 11:03:30;;;;;;;15.65;3.85;;;10.70;99.90;;;;;;5108203;28;20502;-82
2022/02/01 11:05:57;;;;;;;15.05;3.45;;;10.70;99.90;;;;;;5108638;28;20103;-79
2022/02/01 11:08:34;;;;;;;16.90;3.45;;;10.70;99.90;;;;;;5113534;28;20034;-80
2022/02/01 11:11:00;;;;;;;18.00;4.65;;;10.80;99.90;;;;;;5097775;28;20047;-82
2022/02/01 11:13:44;;;;;;;15.98;2.88;;;10.80;99.90;;;;;;5110032;28;20493;-81
2022/02/01 11:16:17;;;;;;;11.15;3.63;;;10.80;99.90;;;;;;5111912;28;20047;-81
2022/02/01 11:19:07;;;;;;;13.60;3.45;;;10.80;99.90;;;;;;5101292;28;20566;-79
2022/02/01 11:22:03;;;;;;;17.20;4.63;;;10.90;99.90;;;;;;5091537;28;20119;-81
2022/02/01 11:24:35;;;;;;;15.43;4.63;;;10.90;99.90;;;;;;5078522;28;20028;-81
2022/02/01 11:27:13;;;;;;;18.15;3.65;;;11.00;99.90;;;;;;5093309;28;20078;-82
2022/02/01 11:30:02;;;;;;;16.05;3.67;;;11.00;99.90;;;;;;5091507;28;20038;-84
2022/02/01 11:32:34;;;;;;;14.65;3.28;;;11.10;99.90;;;;;;5093767;28;20056;-79
2022/02/01 11:35:05;;;;;;;14.27;3.22;;;11.10;99.90;;;;;;5093275;28;20047;-78
2022/02/01 11:37:31;;;;;;;15.48;3.55;;;11.10;99.90;;;;;;5092178;28;20051;-79
2022/02/01 11:39:58;;;;;;;17.90;3.65;;;11.20;99.90;;;;;;5090044;28;20460;-80
2022/02/01 11:42:33;;;;;;;12.85;3.70;;;11.20;99.90;;;;;;5091899;28;20031;-79
2022/02/01 11:45:07;;;;;;;16.92;3.33;;;11.20;99.90;;;;;;5093120;28;20078;-79
2022/02/01 11:47:38;;;;;;;13.50;3.45;;;11.20;99.90;;;;;;5092723;28;20036;-81
2022/02/01 11:50:13;;;;;;;12.27;2.60;;;11.30;99.90;;;;;;5093786;28;20020;-79
2022/02/01 11:52:51;;;;;;;13.15;3.17;;;11.30;99.90;;;;;;5096816;28;20032;-80
2022/02/01 11:55:19;;;;;;;13.77;3.65;;;11.30;99.90;;;;;;5096739;28;20047;-79
2022/02/01 11:57:48;;;;;;;15.77;2.83;;;11.40;99.90;;;;;;5096365;28;20035;-81
2022/02/01 12:00:18;;;;;;;10.13;2.77;;;11.40;99.90;;;;;;5096385;28;20016;-80
2022/02/01 12:02:53;;;;;;;12.77;3.22;;;11.50;99.90;;;;;;5096316;28;20353;-79
2022/02/01 12:05:29;;;;;;;11.00;3.08;;;11.50;99.90;;;;;;5096871;28;20048;-80
2022/02/01 12:08:01;;;;;;;14.50;3.10;;;11.50;99.90;;;;;;5096805;28;20473;-80
2022/02/01 12:10:27;;;;;;;17.67;3.47;;;11.50;99.90;;;;;;5096245;28;20486;-79
2022/02/01 12:12:56;;;;;;;11.38;3.03;;;11.50;99.90;;;;;;5096350;28;20055;-79
2022/02/01 12:15:34;;;;;;;12.88;2.60;;;11.60;99.90;;;;;;5096071;28;20093;-79
2022/02/01 12:18:31;;;;;;;11.50;2.25;;;11.60;99.90;;;;;;5096261;28;20114;-78
2022/02/01 12:21:27;;;;;;;10.77;2.97;;;11.70;99.90;;;;;;5096323;28;20021;-78
2022/02/01 12:23:53;;;;;;;12.38;3.20;;;11.80;99.90;;;;;;5051805;28;20028;-79
2022/02/01 12:26:24;;;;;;;10.75;2.50;;;11.80;99.90;;;;;;5095907;28;20053;-79
2022/02/01 12:28:52;;;;;;;10.80;2.28;;;11.80;99.90;;;;;;5096437;28;20024;-79
2022/02/01 12:31:18;;;;;;;16.20;3.85;;;11.90;99.90;;;;;;5094446;28;20399;-78
2022/02/01 12:33:47;;;;;;;13.48;2.72;;;11.90;99.90;;;;;;5095945;28;20024;-81
2022/02/01 12:36:18;;;;;;;12.43;2.35;;;11.90;99.90;;;;;;5095938;28;20109;-79
2022/02/01 12:38:48;;;;;;;11.02;3.25;;;11.90;99.90;;;;;;5095868;28;20023;-80
2022/02/01 12:41:16;;;;;;;11.50;2.83;;;11.90;99.90;;;;;;5095620;28;20389;-79
2022/02/01 12:46:43;;;;;;;11.20;2.55;;;11.90;99.90;;;;;;5095756;28;20031;-79
2022/02/01 12:49:08;;;;;;;10.85;3.05;;;11.90;99.90;;;;;;5095751;28;20020;-80
2022/02/01 12:51:49;;;;;;;12.18;2.60;;;12.00;99.90;;;;;;5095913;28;20107;-78
2022/02/01 12:54:29;;;;;;;13.80;3.15;;;12.00;99.90;;;;;;5095511;28;20074;-81
2022/02/01 12:57:24;;;;;;;10.23;3.42;;;12.00;99.90;;;;;;5095536;28;20025;-80
2022/02/01 12:59:57;;;;;;;11.07;2.75;;;12.00;99.90;;;;;;5073695;28;20085;-81
2022/02/01 13:02:34;;;;;;;10.88;2.63;;;12.00;99.90;;;;;;5095336;28;20047;-80
2022/02/01 13:05:03;;;;;;;16.40;3.17;;;12.10;99.90;;;;;;5095349;28;20074;-79
2022/02/01 13:21:12;;;;;;;8.63;2.30;;;12.30;99.90;;;;;;5094771;28;20024;-79
2022/02/01 13:23:40;;;;;;;7.20;2.42;;;12.40;99.90;;;;;;5095125;28;20099;-78
2022/02/01 13:26:11;;;;;;;5.50;2.47;;;12.30;99.90;;;;;;5094950;28;20032;-80
2022/02/01 13:28:40;;;;;;;11.30;2.83;;;12.40;99.90;;;;;;5095017;28;20107;-80
2022/02/01 13:31:08;;;;;;;9.32;2.25;;;12.50;99.90;;;;;;5093382;28;20024;-79
2022/02/01 13:33:49;;;;;;;9.82;2.65;;;12.50;99.90;;;;;;5094579;28;20028;-79
2022/02/01 13:36:15;;;;;;;6.80;2.88;;;12.60;99.90;;;;;;5094588;28;20081;-80
2022/02/01 13:38:52;;;;;;;10.60;3.25;;;12.60;99.90;;;;;;5094697;28;20500;-80
2022/02/01 13:41:23;;;;;;;8.27;2.20;;;12.60;99.90;;;;;;5094951;28;20047;-81
2022/02/01 13:43:51;;;;;;;12.70;3.10;;;12.60;99.90;;;;;;5094458;28;20477;-80
2022/02/01 13:46:22;;;;;;;7.70;1.92;;;12.60;99.90;;;;;;5094613;28;20437;-78
2022/02/01 13:49:10;;;;;;;9.70;2.58;;;12.60;99.90;;;;;;5094345;28;20476;-80
2022/02/01 13:51:51;;;;;;;8.88;2.22;;;12.60;99.90;;;;;;5094250;28;20032;-78
2022/02/01 13:54:17;;;;;;;5.88;2.00;;;12.70;99.90;;;;;;5094091;28;20034;-80
2022/02/01 13:56:48;;;;;;;9.65;2.78;;;12.60;99.90;;;;;;5094334;28;20058;-80
2022/02/01 13:59:26;;;;;;;9.00;2.70;;;12.60;99.90;;;;;;5094127;28;20393;-78
2022/02/01 14:02:03;;;;;;;7.63;2.78;;;12.70;99.90;;;;;;5092544;28;20122;-80
2022/02/01 14:04:46;;;;;;;11.77;2.20;;;12.70;99.90;;;;;;5094353;28;20447;-79
2022/02/01 14:07:34;;;;;;;7.75;2.35;;;12.70;99.90;;;;;;5093989;28;20493;-81
2022/02/01 14:25:43;;;;;;;5.68;1.65;;;12.60;99.90;;;;;;5093402;28;20117;-78
2022/02/01 14:28:29;;;;;;;8.32;2.13;;;12.70;99.90;;;;;;5093949;28;20386;-78
2022/02/01 14:33:53;;;;;;;6.70;1.60;;;12.60;99.90;;;;;;5093851;28;20406;-80
2022/02/01 14:36:20;;;;;;;5.93;2.20;;;12.60;99.90;;;;;;5093573;28;20024;-81
2022/02/01 14:39:07;;;;;;;8.18;1.90;;;12.70;99.90;;;;;;5093357;28;20052;-79
2022/02/01 14:46:44;;;;;;;6.72;2.13;;;12.60;99.90;;;;;;5093633;28;20435;-78
2022/02/01 14:49:10;;;;;;;7.25;2.08;;;12.60;99.90;;;;;;5093325;28;20055;-80
2022/02/01 14:51:36;;;;;;;8.25;2.33;;;12.60;99.90;;;;;;5093535;28;20055;-79
2022/02/01 14:54:05;;;;;;;6.72;2.08;;;12.60;99.90;;;;;;5093194;28;20027;-80